createdAt,value
2023-04-10T00:02:53.284Z,96.24
2023-04-10T00:05:57.414Z,96.67
2023-04-10T00:09:00.211Z,96.47
2023-04-10T00:12:03.215Z,96.92
2023-04-10T00:15:06.529Z,97.35
2023-04-10T00:18:09.624Z,97.12
2023-04-10T00:21:12.846Z,97.56
2023-04-10T00:24:15.830Z,97.91
2023-04-10T00:27:18.365Z,98.11
2023-04-10T00:30:21.918Z,97.76
2023-04-10T00:33:24.935Z,98.59
2023-04-10T00:36:28.108Z,98.59
2023-04-10T00:39:30.747Z,98.07
2023-04-10T00:42:34.071Z,97.58
2023-04-10T00:45:36.806Z,97.10
2023-04-10T00:48:40.865Z,96.90
2023-04-10T00:51:43.764Z,97.25
2023-04-10T00:54:46.754Z,97.19
2023-04-10T00:57:49.618Z,97.40
2023-04-10T01:00:52.818Z,97.33
2023-04-10T01:03:56.128Z,97.05
2023-04-10T01:07:15.708Z,97.32
2023-04-10T01:10:35.184Z,97.13
2023-04-10T01:13:50.732Z,97.22
2023-04-10T01:17:00.670Z,97.71
2023-04-10T01:20:13.651Z,97.55
2023-04-10T01:23:25.013Z,97.15
2023-04-10T01:27:01.730Z,97.43
2023-04-10T01:30:06.832Z,97.60
2023-04-10T01:33:13.800Z,98.14
2023-04-10T01:36:31.548Z,97.94
2023-04-10T01:39:39.503Z,97.92
2023-04-10T01:42:53.132Z,97.70
2023-04-10T01:45:58.735Z,98.10
2023-04-10T01:49:03.405Z,98.31
2023-04-10T01:52:07.189Z,98.65
2023-04-10T01:55:10.902Z,98.39
2023-04-10T01:58:15.534Z,98.40
2023-04-10T02:01:29.097Z,98.52
2023-04-10T02:04:33.870Z,98.75
2023-04-10T02:08:05.702Z,98.92
2023-04-10T02:11:17.770Z,98.23
2023-04-10T02:14:23.178Z,99.07
2023-04-10T02:17:30.275Z,98.44
2023-04-10T02:20:34.081Z,98.20
2023-04-10T02:23:37.225Z,98.18
2023-04-10T02:26:52.248Z,98.71
2023-04-10T02:29:55.031Z,99.40
2023-04-10T02:32:58.075Z,99.12
2023-04-10T02:36:02.259Z,99.34
2023-04-10T02:39:06.536Z,99.37
2023-04-10T02:42:09.350Z,99.93
2023-04-10T02:45:12.464Z,99.68
2023-04-10T02:48:15.794Z,100.00
2023-04-10T02:51:19.024Z,99.52
2023-04-10T02:54:22.699Z,99.74
2023-04-10T02:57:26.313Z,100.00
2023-04-10T03:00:29.238Z,99.63
2023-04-10T03:03:34.407Z,100.00
2023-04-10T03:06:37.029Z,99.84
2023-04-10T03:09:40.428Z,99.99
2023-04-10T03:12:43.041Z,100.00
2023-04-10T03:15:47.080Z,100.00
2023-04-10T03:18:50.417Z,100.00
2023-04-10T03:21:53.736Z,100.00
2023-04-10T03:24:57.007Z,100.00
2023-04-10T03:28:00.462Z,100.00
2023-04-10T03:31:05.491Z,100.00
2023-04-10T03:34:08.554Z,100.00
2023-04-10T03:37:11.298Z,100.00
2023-04-10T03:40:14.230Z,100.00
2023-04-10T03:43:17.180Z,100.00
2023-04-10T03:46:20.589Z,100.00
2023-04-10T03:49:23.314Z,100.00
2023-04-10T03:52:31.359Z,100.00
2023-04-10T03:55:34.577Z,100.00
2023-04-10T03:58:37.703Z,100.00
2023-04-10T04:01:41.182Z,100.00
2023-04-10T04:04:45.560Z,100.00
2023-04-10T04:07:48.903Z,99.74
2023-04-10T04:10:52.919Z,100.00
2023-04-10T04:13:57.095Z,100.00
2023-04-10T04:17:00.264Z,100.00
2023-04-10T04:20:03.691Z,100.00
2023-04-10T04:23:09.389Z,100.00
2023-04-10T04:26:12.714Z,99.88
2023-04-10T04:29:15.988Z,99.83
2023-04-10T04:32:18.806Z,99.49
2023-04-10T04:35:26.813Z,99.60
2023-04-10T04:38:30.913Z,99.38
2023-04-10T04:41:34.431Z,98.63
2023-04-10T04:44:39.315Z,99.05
2023-04-10T04:47:42.839Z,98.10
2023-04-10T04:50:46.642Z,97.99
2023-04-10T04:53:50.133Z,98.15
2023-04-10T04:56:57.887Z,98.29
2023-04-10T05:00:02.506Z,97.84
2023-04-10T05:03:11.250Z,97.04
2023-04-10T05:06:14.641Z,96.26
2023-04-10T05:09:19.874Z,95.87
2023-04-10T05:12:22.951Z,95.62
2023-04-10T05:15:25.998Z,95.23
2023-04-10T05:18:29.220Z,94.59
2023-04-10T05:21:32.889Z,94.35
2023-04-10T05:24:35.995Z,94.23
2023-04-10T05:27:39.226Z,93.81
2023-04-10T05:30:42.756Z,93.88
2023-04-10T05:33:45.874Z,93.95
2023-04-10T05:36:49.231Z,93.58
2023-04-10T05:39:52.256Z,93.44
2023-04-10T05:42:55.407Z,92.45
2023-04-10T05:45:58.210Z,92.79
2023-04-10T05:49:02.115Z,91.71
2023-04-10T05:52:05.687Z,91.31
2023-04-10T05:55:09.274Z,90.03
2023-04-10T05:58:13.399Z,89.68
2023-04-10T06:01:18.184Z,89.63
2023-04-10T06:04:22.146Z,89.67
2023-04-10T06:07:27.236Z,89.05
2023-04-10T06:10:31.154Z,88.76
2023-04-10T06:13:33.853Z,88.38
2023-04-10T06:16:37.681Z,88.13
2023-04-10T06:19:41.039Z,87.93
2023-04-10T06:22:43.902Z,86.75
2023-04-10T06:25:46.448Z,86.17
2023-04-10T06:28:49.567Z,86.36
2023-04-10T06:31:53.103Z,84.52
2023-04-10T06:34:56.564Z,84.37
2023-04-10T06:37:59.247Z,83.63
2023-04-10T06:41:02.463Z,82.07
2023-04-10T06:44:05.235Z,82.03
2023-04-10T06:47:09.208Z,79.75
2023-04-10T06:50:11.862Z,78.50
2023-04-10T06:53:14.902Z,77.65
2023-04-10T06:56:17.456Z,77.75
2023-04-10T06:59:20.533Z,76.84
2023-04-10T07:02:23.452Z,75.42
2023-04-10T07:05:26.720Z,75.01
2023-04-10T07:08:29.574Z,75.56
2023-04-10T07:11:32.534Z,74.87
2023-04-10T07:14:35.890Z,74.46
2023-04-10T07:17:39.051Z,74.30
2023-04-10T07:20:41.736Z,73.26
2023-04-10T07:23:44.990Z,72.97
2023-04-10T07:26:47.937Z,73.46
2023-04-10T07:29:54.022Z,72.18
2023-04-10T07:32:57.746Z,71.40
2023-04-10T07:36:02.587Z,70.15
2023-04-10T07:39:05.626Z,70.50
2023-04-10T07:42:11.312Z,69.49
2023-04-10T07:45:13.990Z,67.72
2023-04-10T07:48:17.034Z,68.80
2023-04-10T07:51:19.964Z,67.66
2023-04-10T07:54:23.218Z,68.15
2023-04-10T07:57:26.053Z,65.45
2023-04-10T08:00:29.110Z,65.93
2023-04-10T08:03:41.691Z,64.03
2023-04-10T08:06:44.476Z,63.49
2023-04-10T08:09:47.329Z,63.91
2023-04-10T08:12:49.958Z,62.77
2023-04-10T08:15:52.868Z,62.29
2023-04-10T08:18:57.672Z,61.44
2023-04-10T08:22:00.660Z,61.37
2023-04-10T08:25:03.932Z,60.08
2023-04-10T08:28:06.959Z,59.88
2023-04-10T08:31:09.652Z,59.60
2023-04-10T08:34:12.609Z,57.79
2023-04-10T08:37:15.822Z,56.78
2023-04-10T08:40:18.859Z,56.18
2023-04-10T08:43:21.620Z,57.29
2023-04-10T08:46:27.811Z,57.40
2023-04-10T08:50:09.106Z,57.68
2023-04-10T08:53:14.591Z,56.96
2023-04-10T08:56:19.070Z,55.79
2023-04-10T08:59:22.752Z,55.48
2023-04-10T09:02:25.508Z,53.87
2023-04-10T09:05:29.712Z,53.25
2023-04-10T09:08:32.566Z,53.03
2023-04-10T09:12:04.405Z,53.54
2023-04-10T09:15:07.524Z,52.26
2023-04-10T09:18:10.588Z,50.75
2023-04-10T09:21:18.666Z,51.52
2023-04-10T09:24:21.937Z,50.56
2023-04-10T09:27:35.672Z,50.36
2023-04-10T09:30:43.411Z,51.16
2023-04-10T09:33:46.446Z,50.55
2023-04-10T09:36:58.163Z,49.55
2023-04-10T09:40:01.099Z,49.41
2023-04-10T09:43:23.028Z,47.62
2023-04-10T09:46:28.914Z,48.21
2023-04-10T09:49:45.854Z,47.26
2023-04-10T09:52:57.876Z,48.08
2023-04-10T09:56:00.989Z,47.63
2023-04-10T09:59:06.311Z,48.33
2023-04-10T10:02:09.937Z,46.72
2023-04-10T10:05:13.173Z,45.43
2023-04-10T10:08:17.232Z,45.15
2023-04-10T10:11:23.321Z,46.18
2023-04-10T10:14:29.021Z,45.33
2023-04-10T10:17:43.608Z,44.59
2023-04-10T10:20:47.340Z,43.56
2023-04-10T10:23:54.929Z,44.59
2023-04-10T10:26:59.606Z,44.37
2023-04-10T10:30:11.995Z,45.21
2023-04-10T10:33:19.150Z,43.91
2023-04-10T10:36:23.180Z,42.64
2023-04-10T10:39:57.966Z,43.92
2023-04-10T10:43:19.035Z,44.39
2023-04-10T10:46:38.165Z,42.95
2023-04-10T10:50:01.432Z,44.45
2023-04-10T10:53:04.155Z,42.88
2023-04-10T10:56:19.099Z,42.61
2023-04-10T10:59:43.336Z,41.58
2023-04-10T11:03:09.389Z,42.01
2023-04-10T11:06:15.007Z,43.00
2023-04-10T11:09:48.639Z,41.14
2023-04-10T11:13:17.730Z,42.21
2023-04-10T11:16:21.580Z,43.35
2023-04-10T11:19:26.458Z,42.93
2023-04-10T11:22:29.557Z,42.65
2023-04-10T11:25:49.222Z,41.37
2023-04-10T11:28:52.498Z,41.29
2023-04-10T11:32:06.062Z,38.76
2023-04-10T11:35:09.275Z,38.72
2023-04-10T11:38:17.262Z,38.38
2023-04-10T11:41:20.613Z,38.87
2023-04-10T11:44:25.902Z,39.78
2023-04-10T11:47:28.871Z,39.79
2023-04-10T11:50:36.068Z,38.73
2023-04-10T11:53:39.844Z,37.96
2023-04-10T11:56:44.333Z,37.74
2023-04-10T11:59:51.472Z,37.78
2023-04-10T12:02:54.416Z,37.49
2023-04-10T12:05:57.829Z,38.11
2023-04-10T12:09:00.406Z,37.92
2023-04-10T12:12:05.148Z,39.57
2023-04-10T12:15:28.756Z,40.45
2023-04-10T12:18:32.066Z,41.60
2023-04-10T12:21:39.533Z,41.40
2023-04-10T12:24:50.820Z,41.85
2023-04-10T12:27:53.400Z,42.01
2023-04-10T12:30:56.794Z,41.13
2023-04-10T12:34:01.255Z,42.25
2023-04-10T12:37:04.660Z,42.44
2023-04-10T12:40:07.979Z,42.67
2023-04-10T12:43:10.933Z,44.05
2023-04-10T12:46:27.467Z,44.98
2023-04-10T12:49:30.916Z,45.75
2023-04-10T12:52:34.301Z,45.60
2023-04-10T12:55:37.656Z,45.17
2023-04-10T12:58:42.616Z,44.83
2023-04-10T13:01:45.688Z,46.03
2023-04-10T13:04:48.261Z,47.90
2023-04-10T13:07:52.870Z,51.52
2023-04-10T13:10:58.164Z,57.06
2023-04-10T13:14:01.123Z,59.90
2023-04-10T13:17:03.782Z,60.76
2023-04-10T13:20:07.496Z,60.62
2023-04-10T13:23:10.400Z,61.55
2023-04-10T13:26:13.361Z,63.07
2023-04-10T13:29:16.260Z,64.29
2023-04-10T13:32:19.293Z,62.31
2023-04-10T13:35:22.435Z,61.95
2023-04-10T13:38:25.353Z,60.97
2023-04-10T13:41:27.944Z,60.74
2023-04-10T13:44:30.964Z,61.63
2023-04-10T13:47:33.607Z,61.32
2023-04-10T13:50:36.477Z,61.36
2023-04-10T13:53:39.085Z,62.13
2023-04-10T13:56:42.011Z,62.30
2023-04-10T13:59:44.974Z,61.25
2023-04-10T14:02:48.027Z,61.11
2023-04-10T14:05:52.831Z,61.13
2023-04-10T14:08:55.969Z,59.58
2023-04-10T14:11:59.435Z,60.66
2023-04-10T14:15:02.138Z,60.71
2023-04-10T14:18:05.799Z,61.06
2023-04-10T14:21:08.547Z,60.60
2023-04-10T14:24:12.080Z,60.20
2023-04-10T14:27:14.778Z,60.18
2023-04-10T14:30:17.868Z,59.80
2023-04-10T14:33:21.026Z,58.96
2023-04-10T14:36:24.025Z,59.12
2023-04-10T14:39:27.307Z,58.97
2023-04-10T14:42:30.437Z,59.07
2023-04-10T14:45:33.364Z,59.62
2023-04-10T14:48:36.429Z,58.91
2023-04-10T14:51:39.171Z,58.99
2023-04-10T14:54:42.787Z,58.72
2023-04-10T14:57:45.534Z,59.46
2023-04-10T15:00:50.716Z,58.35
2023-04-10T15:03:54.053Z,58.87
2023-04-10T15:06:57.213Z,58.96
2023-04-10T15:09:59.888Z,59.81
2023-04-10T15:13:03.309Z,60.49
2023-04-10T15:16:08.037Z,60.92
2023-04-10T15:19:11.023Z,60.99
2023-04-10T15:22:14.805Z,61.08
2023-04-10T15:25:17.791Z,61.15
2023-04-10T15:28:20.801Z,60.79
2023-04-10T15:31:24.191Z,60.90
2023-04-10T15:34:27.370Z,61.93
2023-04-10T15:37:30.252Z,61.80
2023-04-10T15:40:32.936Z,61.45
2023-04-10T15:43:36.389Z,61.90
2023-04-10T15:46:39.072Z,61.73
2023-04-10T15:49:42.004Z,62.15
2023-04-10T15:52:45.255Z,62.05
2023-04-10T15:55:48.186Z,62.49
2023-04-10T15:58:50.849Z,62.82
2023-04-10T16:01:53.759Z,63.26
2023-04-10T16:04:56.891Z,63.23
2023-04-10T16:07:59.568Z,63.07
2023-04-10T16:11:02.671Z,63.20
2023-04-10T16:14:05.382Z,62.79
2023-04-10T16:17:08.270Z,62.79
2023-04-10T16:20:11.354Z,62.76
2023-04-10T16:23:14.538Z,63.24
2023-04-10T16:26:18.623Z,62.96
2023-04-10T16:29:21.706Z,63.42
2023-04-10T16:32:24.407Z,63.59
2023-04-10T16:35:27.444Z,64.18
2023-04-10T16:38:34.675Z,63.68
2023-04-10T16:41:37.644Z,63.66
2023-04-10T16:44:40.601Z,63.85
2023-04-10T16:47:44.656Z,64.27
2023-04-10T16:50:47.414Z,64.59
2023-04-10T16:53:50.771Z,64.64
2023-04-10T16:56:53.463Z,65.04
2023-04-10T16:59:58.384Z,65.53
2023-04-10T17:03:01.193Z,66.24
2023-04-10T17:06:04.418Z,65.90
2023-04-10T17:09:07.320Z,66.39
2023-04-10T17:12:10.923Z,67.39
2023-04-10T17:15:13.701Z,67.89
2023-04-10T17:18:16.641Z,68.39
2023-04-10T17:21:19.345Z,68.81
2023-04-10T17:24:22.421Z,69.13
2023-04-10T17:27:25.185Z,71.56
2023-04-10T17:30:29.039Z,70.80
2023-04-10T17:33:31.743Z,71.47
2023-04-10T17:36:34.654Z,72.20
2023-04-10T17:39:37.538Z,73.00
2023-04-10T17:42:40.470Z,72.64
2023-04-10T17:45:43.220Z,73.73
2023-04-10T17:48:46.462Z,73.04
2023-04-10T17:51:49.741Z,73.50
2023-04-10T17:54:52.821Z,73.76
2023-04-10T17:57:57.668Z,73.49
2023-04-10T18:01:01.005Z,73.72
2023-04-10T18:04:04.563Z,74.42
2023-04-10T18:07:07.248Z,74.24
2023-04-10T18:10:11.399Z,75.17
2023-04-10T18:13:14.179Z,75.14
2023-04-10T18:16:17.975Z,75.15
2023-04-10T18:19:21.021Z,75.21
2023-04-10T18:22:24.073Z,75.78
2023-04-10T18:25:26.943Z,75.61
2023-04-10T18:28:30.088Z,75.97
2023-04-10T18:31:32.920Z,76.03
2023-04-10T18:34:36.232Z,75.31
2023-04-10T18:37:40.796Z,75.93
2023-04-10T18:40:43.888Z,75.90
2023-04-10T18:43:54.093Z,76.84
2023-04-10T18:47:05.200Z,76.88
2023-04-10T18:50:11.271Z,75.75
2023-04-10T18:53:14.573Z,76.00
2023-04-10T18:56:17.168Z,75.47
2023-04-10T18:59:20.215Z,75.50
2023-04-10T19:02:22.985Z,75.36
2023-04-10T19:05:26.156Z,75.31
2023-04-10T19:08:29.081Z,75.73
2023-04-10T19:11:32.590Z,76.19
2023-04-10T19:14:37.297Z,76.90
2023-04-10T19:17:40.640Z,76.43
2023-04-10T19:20:49.755Z,76.88
2023-04-10T19:23:55.228Z,77.61
2023-04-10T19:26:58.560Z,77.93
2023-04-10T19:30:01.617Z,77.45
2023-04-10T19:33:04.628Z,77.45
2023-04-10T19:36:08.664Z,77.94
2023-04-10T19:39:11.380Z,77.80
2023-04-10T19:42:14.719Z,79.10
2023-04-10T19:45:17.839Z,79.82
2023-04-10T19:48:21.051Z,80.19
2023-04-10T19:51:23.888Z,79.93
2023-04-10T19:54:30.106Z,80.71
2023-04-10T19:57:32.803Z,80.11
2023-04-10T20:00:35.926Z,79.80
2023-04-10T20:03:39.592Z,81.17
2023-04-10T20:06:43.271Z,81.17
2023-04-10T20:09:46.192Z,80.54
2023-04-10T20:12:48.790Z,80.24
2023-04-10T20:15:51.931Z,79.76
2023-04-10T20:18:56.102Z,81.40
2023-04-10T20:22:01.577Z,81.29
2023-04-10T20:25:05.288Z,81.06
2023-04-10T20:28:08.281Z,79.99
2023-04-10T20:31:11.349Z,80.52
2023-04-10T20:34:14.613Z,82.06
2023-04-10T20:37:21.897Z,81.50
2023-04-10T20:40:24.876Z,81.60
2023-04-10T20:43:27.606Z,81.40
2023-04-10T20:46:30.641Z,81.61
2023-04-10T20:49:33.392Z,81.90
2023-04-10T20:52:36.574Z,82.20
2023-04-10T20:55:39.636Z,81.30
2023-04-10T20:58:42.645Z,82.14
2023-04-10T21:01:45.429Z,83.49
2023-04-10T21:04:50.419Z,83.91
2023-04-10T21:07:54.157Z,82.66
2023-04-10T21:10:59.512Z,81.82
2023-04-10T21:14:02.321Z,83.12
2023-04-10T21:17:05.203Z,82.20
2023-04-10T21:20:08.234Z,83.98
2023-04-10T21:23:11.178Z,85.29
2023-04-10T21:26:13.770Z,82.88
2023-04-10T21:29:16.659Z,83.51
2023-04-10T21:32:19.393Z,82.66
2023-04-10T21:35:24.194Z,82.12
2023-04-10T21:38:26.858Z,82.72
2023-04-10T21:41:29.896Z,82.05
2023-04-10T21:44:32.569Z,83.14
2023-04-10T21:47:35.706Z,82.60
2023-04-10T21:50:38.537Z,82.86
2023-04-10T21:53:41.493Z,83.43
2023-04-10T21:56:44.121Z,83.19
2023-04-10T21:59:47.011Z,82.49
2023-04-10T22:02:50.729Z,83.10
2023-04-10T22:05:53.776Z,82.93
2023-04-10T22:08:56.513Z,82.98
2023-04-10T22:11:59.588Z,83.40
2023-04-10T22:15:02.483Z,83.90
2023-04-10T22:18:05.574Z,84.21
2023-04-10T22:21:08.626Z,83.46
2023-04-10T22:24:11.731Z,83.57
2023-04-10T22:27:14.284Z,84.25
2023-04-10T22:30:17.429Z,84.52
2023-04-10T22:33:20.289Z,85.03
2023-04-10T22:36:23.700Z,85.12
2023-04-10T22:39:26.511Z,84.75
2023-04-10T22:42:31.820Z,83.85
2023-04-10T22:45:34.671Z,84.45
2023-04-10T22:48:37.883Z,84.38
2023-04-10T22:51:41.875Z,85.77
2023-04-10T22:54:44.769Z,85.16
2023-04-10T22:57:48.947Z,85.84
2023-04-10T23:00:52.181Z,84.88
2023-04-10T23:03:55.262Z,84.87
2023-04-10T23:06:58.213Z,85.68
2023-04-10T23:10:01.029Z,85.34
2023-04-10T23:13:04.050Z,86.13
2023-04-10T23:16:07.059Z,86.37
2023-04-10T23:19:10.423Z,85.78
2023-04-10T23:22:13.204Z,85.81
2023-04-10T23:25:16.258Z,86.18
2023-04-10T23:28:18.910Z,85.50
2023-04-10T23:31:22.026Z,86.33
2023-04-10T23:34:26.670Z,87.30
2023-04-10T23:37:29.673Z,86.37
2023-04-10T23:40:32.842Z,87.19
2023-04-10T23:43:35.931Z,88.02
2023-04-10T23:46:38.724Z,88.25
2023-04-10T23:49:42.532Z,88.88
2023-04-10T23:52:49.828Z,89.82
2023-04-10T23:55:52.807Z,90.06
2023-04-10T23:58:56.650Z,90.04
